Ilyas Efendiyev — 9HES8 — position and weather

sailwx.info

Track history (hours):
 
Tides and Currents Weather Stations Pressure Air Temp Water Temp Dewpoint Dewpoint Depression Visibility Wind Speed Wind Dir Waves Ship Positions

Ilyas Efendiyev

Last reported at 2017-Sep-20 19:08 UTC. Time now 2017-Sep-21 01:48 UTC.
Position N 45°31' E 036°46'.

Length 140 m; draft 3.5 m.

Type: Cargo ship. MMSI: 215901000.

Date/timePositionNaut miles runAvg speedWind from/ knotsBaromVisibWave heightAir tempDewpointWater temp
2017-Sep-20 19:08N 45°31' E 036°46'2 9.9
2017-Sep-20 18:58N 45°30' E 036°44'4 9.8
2017-Sep-20 18:30N 45°26' E 036°42'5 9.2
2017-Sep-20 18:00N 45°22' E 036°40'4 8.6
2017-Sep-20 17:30N 45°20' E 036°34'4 8.5
2017-Sep-20 16:59N 45°17' E 036°29'3 7.2
2017-Sep-20 16:30N 45°14' E 036°28'3 5.8
2017-Sep-20 16:00N 45°11' E 036°29'0 0.0
2017-Sep-20 15:30N 45°11' E 036°29'0 0.0
2017-Sep-20 15:00N 45°11' E 036°29'0 0.0
2017-Sep-20 14:00N 45°11' E 036°29'0 0.0
2017-Sep-20 13:30N 45°11' E 036°29'0 0.0
2017-Sep-20 13:00N 45°11' E 036°29'0 0.1
2017-Sep-20 12:30N 45°11' E 036°29'0 0.1
2017-Sep-20 12:00N 45°11' E 036°29'0 0.1
2017-Sep-20 11:30N 45°11' E 036°29'0 0.1
2017-Sep-20 10:59N 45°11' E 036°29'0 0.1
2017-Sep-20 10:30N 45°11' E 036°29'0 0.0
2017-Sep-20 10:00N 45°11' E 036°29'101 8.9
2017-Sep-19 22:43N 43°60' E 034°49'3 9.7
2017-Sep-19 22:23N 43°58' E 034°45'22410.0
2017-Sep-18 23:58N 41°54' E 030°30'2710.5
2017-Sep-18 21:22N 41°38' E 029°60'410.5
2017-Sep-18 21:00N 41°36' E 029°56'510.4
2017-Sep-18 20:30N 41°33' E 029°50'610.4
2017-Sep-18 19:55N 41°30' E 029°43'410.2
2017-Sep-18 19:30N 41°27' E 029°39'17 9.8
2017-Sep-18 17:46N 41°19' E 029°19'3 9.6
2017-Sep-18 17:29N 41°17' E 029°16'5 9.5
2017-Sep-18 17:00N 41°15' E 029°11'5 9.7
2017-Sep-18 16:30N 41°11' E 029°06'4 7.9
2017-Sep-18 16:00N 41°08' E 029°05'5 8.2
2017-Sep-18 15:27N 41°03' E 029°03'4 8.4
2017-Sep-18 15:00N 41°00' E 028°60'5 9.5
2017-Sep-18 14:28N 40°55' E 028°58'87 5.7
2017-Sep-17 23:23N 40°33' E 027°08'410.2
2017-Sep-17 22:59N 40°31' E 027°03'610.1
2017-Sep-17 22:23N 40°29' E 026°56'12 9.6
2017-Sep-17 21:08N 40°24' E 026°42'1 8.8
2017-Sep-17 21:00N 40°23' E 026°41'6 9.0
2017-Sep-17 20:18N 40°18' E 026°36'4 9.0
2017-Sep-17 19:54N 40°16' E 026°32'8 8.8
2017-Sep-17 19:02N 40°12' E 026°23'110.4
2017-Sep-17 18:57N 40°11' E 026°24'10 8.4
2017-Sep-17 17:46N 40°02' E 026°17'4 9.4
2017-Sep-17 17:21N 40°01' E 026°12'3 7.9
2017-Sep-17 16:59N 39°59' E 026°09'7 9.4
2017-Sep-17 16:17N 39°53' E 026°06'3 9.3
2017-Sep-17 16:00N 39°51' E 026°05'6 8.9
2017-Sep-17 15:21N 39°45' E 026°04'  
2017-Sep-15 03:00N 32°56' E 033°01'8 9.7
2017-Sep-15 02:09N 32°51' E 033°08'1 9.7
2017-Sep-15 02:00N 32°50' E 033°09'9 9.8
2017-Sep-15 01:05N 32°43' E 033°17'3 9.9
2017-Sep-15 00:49N 32°41' E 033°19'8 4.5
2017-Sep-14 23:07N 32°36' E 033°26'210.0
2017-Sep-14 22:56N 32°35' E 033°28'410.0
2017-Sep-14 22:30N 32°32' E 033°32'6 9.7
2017-Sep-14 21:56N 32°29' E 033°37'65 2.3
2017-Sep-13 16:56N 31°50' E 034°39'0 0.0
2017-Sep-13 15:06N 31°50' E 034°39'0 0.0
2017-Sep-13 15:00N 31°50' E 034°39'0 0.0
2017-Sep-13 12:57N 31°50' E 034°39'0 0.0
2017-Sep-13 12:27N 31°50' E 034°39'0 0.0
2017-Sep-13 01:24N 31°50' E 034°39'0 0.0
2017-Sep-13 00:41N 31°50' E 034°39'0 0.0
2017-Sep-12 19:24N 31°50' E 034°39'0 0.0
2017-Sep-12 18:58N 31°50' E 034°39'0 0.1
2017-Sep-12 18:25N 31°50' E 034°39'0 0.1
2017-Sep-12 18:00N 31°50' E 034°39'0 0.0
2017-Sep-12 15:48N 31°50' E 034°39'0 0.0
2017-Sep-12 15:27N 31°50' E 034°39'0 0.0
2017-Sep-12 14:45N 31°50' E 034°39'0 0.0
2017-Sep-12 14:10N 31°50' E 034°39'1 0.8
2017-Sep-12 13:23N 31°50' E 034°38'1 2.6
2017-Sep-12 13:00N 31°51' E 034°38'1 2.9
2017-Sep-12 12:30N 31°51' E 034°36'1 1.8
2017-Sep-12 11:58N 31°50' E 034°36'0 0.0
2017-Sep-12 11:28N 31°50' E 034°36'0 0.0
2017-Sep-12 10:58N 31°50' E 034°36'0 0.0
2017-Sep-12 10:00N 31°50' E 034°36'0 0.0
2017-Sep-12 09:22N 31°50' E 034°36'0 0.0
2017-Sep-12 08:55N 31°50' E 034°36'0 0.0
2017-Sep-12 08:30N 31°50' E 034°36'0 0.0
2017-Sep-12 08:00N 31°50' E 034°36'0 0.0
2017-Sep-12 07:30N 31°50' E 034°36'0 0.0
2017-Sep-12 06:21N 31°50' E 034°36'0 0.0
2017-Sep-12 05:58N 31°50' E 034°36'0 0.0
2017-Sep-12 05:28N 31°50' E 034°36'0 0.0
2017-Sep-12 00:09N 31°50' E 034°36'0 0.0
2017-Sep-12 00:00N 31°50' E 034°36'0 0.0
2017-Sep-11 23:29N 31°50' E 034°36'0 0.0
2017-Sep-11 11:54N 31°50' E 034°36'0 0.0
2017-Sep-11 09:52N 31°50' E 034°36'0 0.0
2017-Sep-11 08:23N 31°50' E 034°36'0 0.0
2017-Sep-11 08:00N 31°50' E 034°36'0 0.0
2017-Sep-11 07:18N 31°50' E 034°36'  
Track history (hours):
 
Tides and Currents Weather Stations Pressure Air Temp Water Temp Dewpoint Dewpoint Depression Visibility Wind Speed Wind Dir Waves Ship Positions

Ilyas Efendiyev

Last reported at 2017-Sep-20 19:08 UTC. Time now 2017-Sep-21 01:48 UTC.
Position N 45°31' E 036°46'.

Length 140 m; draft 3.5 m.

Type: Cargo ship. MMSI: 215901000.

Date/timePositionNaut miles runAvg speedWind from/ knotsBaromVisibWave heightAir tempDewpointWater temp
2017-Sep-20 19:08N 45°31' E 036°46'2 9.9
2017-Sep-20 18:58N 45°30' E 036°44'4 9.8
2017-Sep-20 18:30N 45°26' E 036°42'5 9.2
2017-Sep-20 18:00N 45°22' E 036°40'4 8.6
2017-Sep-20 17:30N 45°20' E 036°34'4 8.5
2017-Sep-20 16:59N 45°17' E 036°29'3 7.2
2017-Sep-20 16:30N 45°14' E 036°28'3 5.8
2017-Sep-20 16:00N 45°11' E 036°29'0 0.0
2017-Sep-20 15:30N 45°11' E 036°29'0 0.0
2017-Sep-20 15:00N 45°11' E 036°29'0 0.0
2017-Sep-20 14:00N 45°11' E 036°29'0 0.0
2017-Sep-20 13:30N 45°11' E 036°29'0 0.0
2017-Sep-20 13:00N 45°11' E 036°29'0 0.1
2017-Sep-20 12:30N 45°11' E 036°29'0 0.1
2017-Sep-20 12:00N 45°11' E 036°29'0 0.1
2017-Sep-20 11:30N 45°11' E 036°29'0 0.1
2017-Sep-20 10:59N 45°11' E 036°29'0 0.1
2017-Sep-20 10:30N 45°11' E 036°29'0 0.0
2017-Sep-20 10:00N 45°11' E 036°29'101 8.9
2017-Sep-19 22:43N 43°60' E 034°49'3 9.7
2017-Sep-19 22:23N 43°58' E 034°45'22410.0
2017-Sep-18 23:58N 41°54' E 030°30'2710.5
2017-Sep-18 21:22N 41°38' E 029°60'410.5
2017-Sep-18 21:00N 41°36' E 029°56'510.4
2017-Sep-18 20:30N 41°33' E 029°50'610.4
2017-Sep-18 19:55N 41°30' E 029°43'410.2
2017-Sep-18 19:30N 41°27' E 029°39'17 9.8
2017-Sep-18 17:46N 41°19' E 029°19'3 9.6
2017-Sep-18 17:29N 41°17' E 029°16'5 9.5
2017-Sep-18 17:00N 41°15' E 029°11'5 9.7
2017-Sep-18 16:30N 41°11' E 029°06'4 7.9
2017-Sep-18 16:00N 41°08' E 029°05'5 8.2
2017-Sep-18 15:27N 41°03' E 029°03'4 8.4
2017-Sep-18 15:00N 41°00' E 028°60'5 9.5
2017-Sep-18 14:28N 40°55' E 028°58'87 5.7
2017-Sep-17 23:23N 40°33' E 027°08'410.2
2017-Sep-17 22:59N 40°31' E 027°03'610.1
2017-Sep-17 22:23N 40°29' E 026°56'12 9.6
2017-Sep-17 21:08N 40°24' E 026°42'1 8.8
2017-Sep-17 21:00N 40°23' E 026°41'6 9.0
2017-Sep-17 20:18N 40°18' E 026°36'4 9.0
2017-Sep-17 19:54N 40°16' E 026°32'8 8.8
2017-Sep-17 19:02N 40°12' E 026°23'110.4
2017-Sep-17 18:57N 40°11' E 026°24'10 8.4
2017-Sep-17 17:46N 40°02' E 026°17'4 9.4
2017-Sep-17 17:21N 40°01' E 026°12'3 7.9
2017-Sep-17 16:59N 39°59' E 026°09'7 9.4
2017-Sep-17 16:17N 39°53' E 026°06'3 9.3
2017-Sep-17 16:00N 39°51' E 026°05'6 8.9
2017-Sep-17 15:21N 39°45' E 026°04'  
2017-Sep-15 03:00N 32°56' E 033°01'8 9.7
2017-Sep-15 02:09N 32°51' E 033°08'1 9.7
2017-Sep-15 02:00N 32°50' E 033°09'9 9.8
2017-Sep-15 01:05N 32°43' E 033°17'3 9.9
2017-Sep-15 00:49N 32°41' E 033°19'8 4.5
2017-Sep-14 23:07N 32°36' E 033°26'210.0
2017-Sep-14 22:56N 32°35' E 033°28'410.0
2017-Sep-14 22:30N 32°32' E 033°32'6 9.7
2017-Sep-14 21:56N 32°29' E 033°37'65 2.3
2017-Sep-13 16:56N 31°50' E 034°39'0 0.0
2017-Sep-13 15:06N 31°50' E 034°39'0 0.0
2017-Sep-13 15:00N 31°50' E 034°39'0 0.0
2017-Sep-13 12:57N 31°50' E 034°39'0 0.0
2017-Sep-13 12:27N 31°50' E 034°39'0 0.0
2017-Sep-13 01:24N 31°50' E 034°39'0 0.0
2017-Sep-13 00:41N 31°50' E 034°39'0 0.0
2017-Sep-12 19:24N 31°50' E 034°39'0 0.0
2017-Sep-12 18:58N 31°50' E 034°39'0 0.1
2017-Sep-12 18:25N 31°50' E 034°39'0 0.1
2017-Sep-12 18:00N 31°50' E 034°39'0 0.0
2017-Sep-12 15:48N 31°50' E 034°39'0 0.0
2017-Sep-12 15:27N 31°50' E 034°39'0 0.0
2017-Sep-12 14:45N 31°50' E 034°39'0 0.0
2017-Sep-12 14:10N 31°50' E 034°39'1 0.8
2017-Sep-12 13:23N 31°50' E 034°38'1 2.6
2017-Sep-12 13:00N 31°51' E 034°38'1 2.9
2017-Sep-12 12:30N 31°51' E 034°36'1 1.8
2017-Sep-12 11:58N 31°50' E 034°36'0 0.0
2017-Sep-12 11:28N 31°50' E 034°36'0 0.0
2017-Sep-12 10:58N 31°50' E 034°36'0 0.0
2017-Sep-12 10:00N 31°50' E 034°36'0 0.0
2017-Sep-12 09:22N 31°50' E 034°36'0 0.0
2017-Sep-12 08:55N 31°50' E 034°36'0 0.0
2017-Sep-12 08:30N 31°50' E 034°36'0 0.0
2017-Sep-12 08:00N 31°50' E 034°36'0 0.0
2017-Sep-12 07:30N 31°50' E 034°36'0 0.0
2017-Sep-12 06:21N 31°50' E 034°36'0 0.0
2017-Sep-12 05:58N 31°50' E 034°36'0 0.0
2017-Sep-12 05:28N 31°50' E 034°36'0 0.0
2017-Sep-12 00:09N 31°50' E 034°36'0 0.0
2017-Sep-12 00:00N 31°50' E 034°36'0 0.0
2017-Sep-11 23:29N 31°50' E 034°36'0 0.0
2017-Sep-11 11:54N 31°50' E 034°36'0 0.0
2017-Sep-11 09:52N 31°50' E 034°36'0 0.0
2017-Sep-11 08:23N 31°50' E 034°36'0 0.0
2017-Sep-11 08:00N 31°50' E 034°36'0 0.0
2017-Sep-11 07:18N 31°50' E 034°36'  

Dump ship's entire track history